sensor_id;sensor_type;location;lat;lon;timestamp;P1;durP1;ratioP1;P2;durP2;ratioP2
20657;SDS011;10488;50.846;4.078;2023-06-14T00:01:19;8.10;;;5.65;;
20657;SDS011;10488;50.846;4.078;2023-06-14T00:03:47;10.65;;;5.97;;
20657;SDS011;10488;50.846;4.078;2023-06-14T00:06:13;12.65;;;6.15;;
20657;SDS011;10488;50.846;4.078;2023-06-14T00:08:39;10.02;;;5.95;;
20657;SDS011;10488;50.846;4.078;2023-06-14T00:11:05;12.23;;;6.10;;
20657;SDS011;10488;50.846;4.078;2023-06-14T00:13:31;12.07;;;5.72;;
20657;SDS011;10488;50.846;4.078;2023-06-14T00:15:57;10.43;;;6.32;;
20657;SDS011;10488;50.846;4.078;2023-06-14T00:18:23;6.72;;;5.97;;
20657;SDS011;10488;50.846;4.078;2023-06-14T00:20:54;12.65;;;5.53;;
20657;SDS011;10488;50.846;4.078;2023-06-14T00:23:20;8.20;;;5.70;;
20657;SDS011;10488;50.846;4.078;2023-06-14T00:25:46;10.02;;;5.80;;
20657;SDS011;10488;50.846;4.078;2023-06-14T00:28:12;10.35;;;5.55;;
20657;SDS011;10488;50.846;4.078;2023-06-14T00:30:39;9.63;;;5.88;;
20657;SDS011;10488;50.846;4.078;2023-06-14T00:33:04;11.52;;;6.18;;
20657;SDS011;10488;50.846;4.078;2023-06-14T00:35:30;7.28;;;5.40;;
20657;SDS011;10488;50.846;4.078;2023-06-14T00:37:56;9.32;;;5.55;;
20657;SDS011;10488;50.846;4.078;2023-06-14T00:40:22;6.80;;;5.70;;
20657;SDS011;10488;50.846;4.078;2023-06-14T00:42:47;8.98;;;5.55;;
20657;SDS011;10488;50.846;4.078;2023-06-14T00:45:13;10.88;;;5.55;;
20657;SDS011;10488;50.846;4.078;2023-06-14T00:47:39;7.53;;;5.78;;
20657;SDS011;10488;50.846;4.078;2023-06-14T00:50:07;6.97;;;6.10;;
20657;SDS011;10488;50.846;4.078;2023-06-14T00:52:34;12.48;;;5.40;;
20657;SDS011;10488;50.846;4.078;2023-06-14T00:55:00;6.75;;;5.38;;
20657;SDS011;10488;50.846;4.078;2023-06-14T00:57:26;8.05;;;5.60;;
20657;SDS011;10488;50.846;4.078;2023-06-14T00:59:52;6.50;;;5.55;;
20657;SDS011;10488;50.846;4.078;2023-06-14T01:02:18;10.57;;;5.80;;
20657;SDS011;10488;50.846;4.078;2023-06-14T01:04:47;12.95;;;5.80;;
20657;SDS011;10488;50.846;4.078;2023-06-14T01:13:02;8.02;;;6.43;;
20657;SDS011;10488;50.846;4.078;2023-06-14T01:15:30;8.80;;;6.45;;
20657;SDS011;10488;50.846;4.078;2023-06-14T01:17:56;11.45;;;6.05;;
20657;SDS011;10488;50.846;4.078;2023-06-14T01:20:31;9.07;;;6.50;;
20657;SDS011;10488;50.846;4.078;2023-06-14T01:22:58;14.45;;;6.45;;
20657;SDS011;10488;50.846;4.078;2023-06-14T01:25:24;9.65;;;6.18;;
20657;SDS011;10488;50.846;4.078;2023-06-14T01:27:51;11.30;;;6.38;;
20657;SDS011;10488;50.846;4.078;2023-06-14T01:30:25;8.57;;;6.05;;
20657;SDS011;10488;50.846;4.078;2023-06-14T01:32:52;8.68;;;6.18;;
20657;SDS011;10488;50.846;4.078;2023-06-14T01:35:20;11.30;;;5.93;;
20657;SDS011;10488;50.846;4.078;2023-06-14T01:37:47;15.38;;;6.40;;
20657;SDS011;10488;50.846;4.078;2023-06-14T01:40:13;8.20;;;6.15;;
20657;SDS011;10488;50.846;4.078;2023-06-14T01:42:40;10.52;;;6.60;;
20657;SDS011;10488;50.846;4.078;2023-06-14T01:45:07;7.80;;;6.40;;
20657;SDS011;10488;50.846;4.078;2023-06-14T01:47:35;12.18;;;6.55;;
20657;SDS011;10488;50.846;4.078;2023-06-14T01:50:04;11.52;;;6.65;;
20657;SDS011;10488;50.846;4.078;2023-06-14T01:52:30;8.40;;;6.47;;
20657;SDS011;10488;50.846;4.078;2023-06-14T01:54:56;9.80;;;6.28;;
20657;SDS011;10488;50.846;4.078;2023-06-14T01:57:23;7.43;;;6.53;;
20657;SDS011;10488;50.846;4.078;2023-06-14T01:59:50;11.68;;;5.93;;
20657;SDS011;10488;50.846;4.078;2023-06-14T02:02:16;7.20;;;6.28;;
20657;SDS011;10488;50.846;4.078;2023-06-14T02:04:41;13.18;;;6.82;;
20657;SDS011;10488;50.846;4.078;2023-06-14T02:07:07;6.93;;;5.97;;
20657;SDS011;10488;50.846;4.078;2023-06-14T02:09:33;10.13;;;6.68;;
20657;SDS011;10488;50.846;4.078;2023-06-14T02:12:00;9.65;;;6.60;;
20657;SDS011;10488;50.846;4.078;2023-06-14T02:14:26;10.27;;;6.13;;
20657;SDS011;10488;50.846;4.078;2023-06-14T02:16:52;10.98;;;7.15;;
20657;SDS011;10488;50.846;4.078;2023-06-14T02:19:18;10.35;;;7.05;;
20657;SDS011;10488;50.846;4.078;2023-06-14T02:21:45;9.27;;;6.97;;
20657;SDS011;10488;50.846;4.078;2023-06-14T02:24:12;13.63;;;6.97;;
20657;SDS011;10488;50.846;4.078;2023-06-14T02:26:38;9.57;;;6.93;;
20657;SDS011;10488;50.846;4.078;2023-06-14T02:29:04;11.10;;;6.60;;
20657;SDS011;10488;50.846;4.078;2023-06-14T02:31:31;8.00;;;7.20;;
20657;SDS011;10488;50.846;4.078;2023-06-14T02:33:57;16.95;;;6.45;;
20657;SDS011;10488;50.846;4.078;2023-06-14T02:36:23;11.30;;;7.55;;
20657;SDS011;10488;50.846;4.078;2023-06-14T02:38:49;11.43;;;7.03;;
20657;SDS011;10488;50.846;4.078;2023-06-14T02:41:14;7.80;;;6.47;;
20657;SDS011;10488;50.846;4.078;2023-06-14T02:43:40;8.40;;;7.47;;
20657;SDS011;10488;50.846;4.078;2023-06-14T02:46:06;11.60;;;7.63;;
20657;SDS011;10488;50.846;4.078;2023-06-14T02:48:32;10.05;;;7.05;;
20657;SDS011;10488;50.846;4.078;2023-06-14T02:50:58;8.82;;;6.82;;
20657;SDS011;10488;50.846;4.078;2023-06-14T02:53:23;8.10;;;7.30;;
20657;SDS011;10488;50.846;4.078;2023-06-14T02:55:49;11.45;;;7.65;;
20657;SDS011;10488;50.846;4.078;2023-06-14T02:58:15;12.23;;;8.05;;
20657;SDS011;10488;50.846;4.078;2023-06-14T03:00:41;9.82;;;7.72;;
20657;SDS011;10488;50.846;4.078;2023-06-14T03:03:07;14.48;;;7.45;;
20657;SDS011;10488;50.846;4.078;2023-06-14T03:05:41;10.05;;;7.28;;
20657;SDS011;10488;50.846;4.078;2023-06-14T03:08:14;9.60;;;7.72;;
20657;SDS011;10488;50.846;4.078;2023-06-14T03:10:48;9.75;;;7.93;;
20657;SDS011;10488;50.846;4.078;2023-06-14T03:13:14;9.15;;;7.32;;
20657;SDS011;10488;50.846;4.078;2023-06-14T03:15:44;10.23;;;8.25;;
20657;SDS011;10488;50.846;4.078;2023-06-14T03:18:10;11.68;;;7.35;;
20657;SDS011;10488;50.846;4.078;2023-06-14T03:20:37;13.85;;;8.43;;
20657;SDS011;10488;50.846;4.078;2023-06-14T03:23:03;22.30;;;8.45;;
20657;SDS011;10488;50.846;4.078;2023-06-14T03:25:30;15.75;;;7.25;;
20657;SDS011;10488;50.846;4.078;2023-06-14T03:27:56;13.27;;;7.60;;
20657;SDS011;10488;50.846;4.078;2023-06-14T03:30:22;18.35;;;8.05;;
20657;SDS011;10488;50.846;4.078;2023-06-14T03:32:47;9.93;;;7.63;;
20657;SDS011;10488;50.846;4.078;2023-06-14T03:35:13;13.38;;;7.88;;
20657;SDS011;10488;50.846;4.078;2023-06-14T03:37:43;9.85;;;8.65;;
20657;SDS011;10488;50.846;4.078;2023-06-14T03:40:09;18.13;;;8.07;;
20657;SDS011;10488;50.846;4.078;2023-06-14T03:42:36;12.35;;;8.70;;
20657;SDS011;10488;50.846;4.078;2023-06-14T03:45:02;12.60;;;7.78;;
20657;SDS011;10488;50.846;4.078;2023-06-14T03:47:28;12.82;;;7.88;;
20657;SDS011;10488;50.846;4.078;2023-06-14T03:49:53;12.85;;;7.22;;
20657;SDS011;10488;50.846;4.078;2023-06-14T03:52:19;13.07;;;7.68;;
20657;SDS011;10488;50.846;4.078;2023-06-14T03:54:47;16.25;;;8.07;;
20657;SDS011;10488;50.846;4.078;2023-06-14T03:57:13;9.68;;;7.70;;
20657;SDS011;10488;50.846;4.078;2023-06-14T03:59:38;9.40;;;7.57;;
20657;SDS011;10488;50.846;4.078;2023-06-14T04:02:04;13.32;;;8.50;;
20657;SDS011;10488;50.846;4.078;2023-06-14T04:04:30;12.88;;;8.30;;
20657;SDS011;10488;50.846;4.078;2023-06-14T04:06:56;14.30;;;8.13;;
20657;SDS011;10488;50.846;4.078;2023-06-14T04:09:23;12.57;;;7.35;;
20657;SDS011;10488;50.846;4.078;2023-06-14T04:11:52;12.15;;;7.60;;
20657;SDS011;10488;50.846;4.078;2023-06-14T04:14:19;10.88;;;7.43;;
20657;SDS011;10488;50.846;4.078;2023-06-14T04:16:45;15.70;;;7.45;;
20657;SDS011;10488;50.846;4.078;2023-06-14T04:19:11;12.43;;;7.55;;
20657;SDS011;10488;50.846;4.078;2023-06-14T04:21:37;11.60;;;6.88;;
20657;SDS011;10488;50.846;4.078;2023-06-14T04:24:03;12.38;;;6.80;;
20657;SDS011;10488;50.846;4.078;2023-06-14T04:26:29;9.20;;;7.57;;
20657;SDS011;10488;50.846;4.078;2023-06-14T04:28:58;11.10;;;7.35;;
20657;SDS011;10488;50.846;4.078;2023-06-14T04:31:30;11.48;;;7.32;;
20657;SDS011;10488;50.846;4.078;2023-06-14T04:33:58;9.65;;;7.38;;
20657;SDS011;10488;50.846;4.078;2023-06-14T04:36:24;10.98;;;7.03;;
20657;SDS011;10488;50.846;4.078;2023-06-14T04:38:53;10.52;;;7.05;;
20657;SDS011;10488;50.846;4.078;2023-06-14T04:41:20;10.02;;;7.13;;
20657;SDS011;10488;50.846;4.078;2023-06-14T04:43:47;11.88;;;7.20;;
20657;SDS011;10488;50.846;4.078;2023-06-14T04:46:14;13.38;;;7.18;;
20657;SDS011;10488;50.846;4.078;2023-06-14T04:48:40;12.13;;;7.45;;
20657;SDS011;10488;50.846;4.078;2023-06-14T04:51:08;11.45;;;6.70;;
20657;SDS011;10488;50.846;4.078;2023-06-14T04:53:34;9.75;;;7.32;;
20657;SDS011;10488;50.846;4.078;2023-06-14T04:56:00;20.08;;;6.80;;
20657;SDS011;10488;50.846;4.078;2023-06-14T04:58:26;7.78;;;6.68;;
20657;SDS011;10488;50.846;4.078;2023-06-14T05:00:53;9.57;;;6.90;;
20657;SDS011;10488;50.846;4.078;2023-06-14T05:03:20;10.85;;;7.13;;
20657;SDS011;10488;50.846;4.078;2023-06-14T05:05:46;13.35;;;6.97;;
20657;SDS011;10488;50.846;4.078;2023-06-14T05:08:13;12.52;;;7.30;;
20657;SDS011;10488;50.846;4.078;2023-06-14T05:10:38;8.95;;;6.60;;
20657;SDS011;10488;50.846;4.078;2023-06-14T05:13:04;11.23;;;7.07;;
20657;SDS011;10488;50.846;4.078;2023-06-14T05:15:29;12.00;;;7.60;;
20657;SDS011;10488;50.846;4.078;2023-06-14T05:17:55;10.10;;;7.97;;
20657;SDS011;10488;50.846;4.078;2023-06-14T05:20:21;10.25;;;7.25;;
20657;SDS011;10488;50.846;4.078;2023-06-14T05:22:49;15.50;;;7.38;;
20657;SDS011;10488;50.846;4.078;2023-06-14T05:25:17;12.10;;;7.43;;
20657;SDS011;10488;50.846;4.078;2023-06-14T05:27:43;14.70;;;8.23;;
20657;SDS011;10488;50.846;4.078;2023-06-14T05:30:09;19.00;;;8.10;;
20657;SDS011;10488;50.846;4.078;2023-06-14T05:32:35;16.08;;;7.75;;
20657;SDS011;10488;50.846;4.078;2023-06-14T05:35:01;12.77;;;7.72;;
20657;SDS011;10488;50.846;4.078;2023-06-14T05:37:26;11.68;;;7.28;;
20657;SDS011;10488;50.846;4.078;2023-06-14T05:39:52;9.38;;;7.55;;
20657;SDS011;10488;50.846;4.078;2023-06-14T05:42:18;13.27;;;6.63;;
20657;SDS011;10488;50.846;4.078;2023-06-14T05:44:43;11.38;;;7.32;;
20657;SDS011;10488;50.846;4.078;2023-06-14T05:47:09;10.10;;;7.30;;
20657;SDS011;10488;50.846;4.078;2023-06-14T05:49:35;14.50;;;6.95;;
20657;SDS011;10488;50.846;4.078;2023-06-14T05:52:00;10.75;;;7.63;;
20657;SDS011;10488;50.846;4.078;2023-06-14T05:54:26;12.15;;;6.82;;
20657;SDS011;10488;50.846;4.078;2023-06-14T05:56:55;12.68;;;7.03;;
20657;SDS011;10488;50.846;4.078;2023-06-14T05:59:20;12.80;;;6.97;;
20657;SDS011;10488;50.846;4.078;2023-06-14T06:01:46;10.30;;;7.07;;
20657;SDS011;10488;50.846;4.078;2023-06-14T06:04:12;18.02;;;7.93;;
20657;SDS011;10488;50.846;4.078;2023-06-14T06:06:37;13.63;;;6.97;;
20657;SDS011;10488;50.846;4.078;2023-06-14T06:09:04;15.15;;;6.78;;
20657;SDS011;10488;50.846;4.078;2023-06-14T06:11:31;11.05;;;6.30;;
20657;SDS011;10488;50.846;4.078;2023-06-14T06:13:57;11.73;;;6.65;;
20657;SDS011;10488;50.846;4.078;2023-06-14T06:16:22;11.73;;;7.53;;
20657;SDS011;10488;50.846;4.078;2023-06-14T06:18:48;12.77;;;7.43;;
20657;SDS011;10488;50.846;4.078;2023-06-14T06:21:14;17.83;;;7.63;;
20657;SDS011;10488;50.846;4.078;2023-06-14T06:23:40;9.63;;;7.55;;
20657;SDS011;10488;50.846;4.078;2023-06-14T06:26:06;11.70;;;7.40;;
20657;SDS011;10488;50.846;4.078;2023-06-14T06:28:32;12.68;;;7.15;;
20657;SDS011;10488;50.846;4.078;2023-06-14T06:30:57;17.00;;;7.63;;
20657;SDS011;10488;50.846;4.078;2023-06-14T06:33:23;9.65;;;6.82;;
20657;SDS011;10488;50.846;4.078;2023-06-14T06:35:49;11.88;;;6.78;;
20657;SDS011;10488;50.846;4.078;2023-06-14T06:38:14;10.40;;;7.22;;
20657;SDS011;10488;50.846;4.078;2023-06-14T06:40:40;8.75;;;6.75;;
20657;SDS011;10488;50.846;4.078;2023-06-14T06:43:06;11.45;;;6.63;;
20657;SDS011;10488;50.846;4.078;2023-06-14T06:45:31;15.82;;;7.80;;
20657;SDS011;10488;50.846;4.078;2023-06-14T06:47:58;12.40;;;6.78;;
20657;SDS011;10488;50.846;4.078;2023-06-14T06:50:23;7.50;;;6.38;;
20657;SDS011;10488;50.846;4.078;2023-06-14T06:52:50;16.40;;;6.82;;
20657;SDS011;10488;50.846;4.078;2023-06-14T06:55:16;21.95;;;7.97;;
20657;SDS011;10488;50.846;4.078;2023-06-14T06:57:43;10.65;;;6.47;;
20657;SDS011;10488;50.846;4.078;2023-06-14T07:00:09;12.57;;;6.45;;
20657;SDS011;10488;50.846;4.078;2023-06-14T07:02:35;13.70;;;6.35;;
20657;SDS011;10488;50.846;4.078;2023-06-14T07:05:01;19.13;;;7.57;;
20657;SDS011;10488;50.846;4.078;2023-06-14T07:07:27;13.13;;;7.53;;
20657;SDS011;10488;50.846;4.078;2023-06-14T07:09:53;12.00;;;6.05;;
20657;SDS011;10488;50.846;4.078;2023-06-14T07:12:19;8.07;;;5.53;;
20657;SDS011;10488;50.846;4.078;2023-06-14T07:14:44;20.55;;;7.45;;
20657;SDS011;10488;50.846;4.078;2023-06-14T07:17:10;8.95;;;5.70;;
20657;SDS011;10488;50.846;4.078;2023-06-14T07:19:36;8.98;;;5.68;;
20657;SDS011;10488;50.846;4.078;2023-06-14T07:22:02;14.30;;;6.30;;
20657;SDS011;10488;50.846;4.078;2023-06-14T07:24:27;11.48;;;6.22;;
20657;SDS011;10488;50.846;4.078;2023-06-14T07:26:53;8.00;;;5.18;;
20657;SDS011;10488;50.846;4.078;2023-06-14T07:29:19;10.48;;;5.97;;
20657;SDS011;10488;50.846;4.078;2023-06-14T07:31:46;7.95;;;6.40;;
20657;SDS011;10488;50.846;4.078;2023-06-14T07:34:12;12.02;;;5.72;;
20657;SDS011;10488;50.846;4.078;2023-06-14T07:36:37;8.88;;;5.90;;
20657;SDS011;10488;50.846;4.078;2023-06-14T07:39:03;9.90;;;5.80;;
20657;SDS011;10488;50.846;4.078;2023-06-14T07:41:31;11.68;;;5.57;;
20657;SDS011;10488;50.846;4.078;2023-06-14T07:43:57;10.65;;;5.18;;
20657;SDS011;10488;50.846;4.078;2023-06-14T07:46:23;10.88;;;5.68;;
20657;SDS011;10488;50.846;4.078;2023-06-14T07:48:49;8.70;;;5.25;;
20657;SDS011;10488;50.846;4.078;2023-06-14T07:51:14;9.23;;;5.30;;
20657;SDS011;10488;50.846;4.078;2023-06-14T07:53:40;17.58;;;5.82;;
20657;SDS011;10488;50.846;4.078;2023-06-14T07:56:07;15.77;;;5.35;;
20657;SDS011;10488;50.846;4.078;2023-06-14T07:58:32;9.27;;;5.25;;
20657;SDS011;10488;50.846;4.078;2023-06-14T08:00:58;10.40;;;5.05;;
20657;SDS011;10488;50.846;4.078;2023-06-14T08:03:25;12.65;;;5.10;;
20657;SDS011;10488;50.846;4.078;2023-06-14T08:05:51;10.85;;;5.10;;
20657;SDS011;10488;50.846;4.078;2023-06-14T08:08:17;7.38;;;5.70;;
20657;SDS011;10488;50.846;4.078;2023-06-14T08:10:42;12.40;;;5.38;;
20657;SDS011;10488;50.846;4.078;2023-06-14T08:13:08;10.10;;;5.72;;
20657;SDS011;10488;50.846;4.078;2023-06-14T08:15:35;11.48;;;5.80;;
20657;SDS011;10488;50.846;4.078;2023-06-14T08:18:00;10.18;;;5.38;;
20657;SDS011;10488;50.846;4.078;2023-06-14T08:20:26;11.32;;;5.30;;
20657;SDS011;10488;50.846;4.078;2023-06-14T08:22:52;8.55;;;5.47;;
20657;SDS011;10488;50.846;4.078;2023-06-14T08:25:21;12.70;;;5.43;;
20657;SDS011;10488;50.846;4.078;2023-06-14T08:27:47;8.70;;;5.07;;
20657;SDS011;10488;50.846;4.078;2023-06-14T08:30:13;15.93;;;4.88;;
20657;SDS011;10488;50.846;4.078;2023-06-14T08:32:39;11.23;;;4.60;;
20657;SDS011;10488;50.846;4.078;2023-06-14T08:35:04;13.45;;;5.78;;
20657;SDS011;10488;50.846;4.078;2023-06-14T08:37:32;8.75;;;4.97;;
20657;SDS011;10488;50.846;4.078;2023-06-14T08:40:01;7.97;;;4.90;;
20657;SDS011;10488;50.846;4.078;2023-06-14T08:42:30;9.23;;;4.63;;
20657;SDS011;10488;50.846;4.078;2023-06-14T08:44:57;16.65;;;5.57;;
20657;SDS011;10488;50.846;4.078;2023-06-14T08:47:24;14.45;;;5.72;;
20657;SDS011;10488;50.846;4.078;2023-06-14T08:49:54;6.45;;;4.25;;
20657;SDS011;10488;50.846;4.078;2023-06-14T08:52:22;10.82;;;4.78;;
20657;SDS011;10488;50.846;4.078;2023-06-14T08:54:50;9.75;;;4.72;;
20657;SDS011;10488;50.846;4.078;2023-06-14T08:57:15;7.72;;;3.90;;
20657;SDS011;10488;50.846;4.078;2023-06-14T08:59:45;6.88;;;4.20;;
20657;SDS011;10488;50.846;4.078;2023-06-14T09:02:18;8.32;;;4.78;;
20657;SDS011;10488;50.846;4.078;2023-06-14T09:04:47;9.95;;;5.28;;
20657;SDS011;10488;50.846;4.078;2023-06-14T09:07:14;10.57;;;4.53;;
20657;SDS011;10488;50.846;4.078;2023-06-14T09:09:40;10.88;;;5.28;;
20657;SDS011;10488;50.846;4.078;2023-06-14T09:12:12;11.25;;;4.47;;
20657;SDS011;10488;50.846;4.078;2023-06-14T09:14:38;11.60;;;4.72;;
20657;SDS011;10488;50.846;4.078;2023-06-14T09:17:07;8.38;;;4.05;;
20657;SDS011;10488;50.846;4.078;2023-06-14T09:19:33;5.95;;;4.03;;
20657;SDS011;10488;50.846;4.078;2023-06-14T09:22:00;7.65;;;5.28;;
20657;SDS011;10488;50.846;4.078;2023-06-14T09:24:26;9.43;;;4.25;;
20657;SDS011;10488;50.846;4.078;2023-06-14T09:26:52;5.70;;;4.38;;
20657;SDS011;10488;50.846;4.078;2023-06-14T09:29:20;9.68;;;4.18;;
20657;SDS011;10488;50.846;4.078;2023-06-14T09:31:46;7.35;;;4.90;;
20657;SDS011;10488;50.846;4.078;2023-06-14T09:34:12;7.20;;;4.50;;
20657;SDS011;10488;50.846;4.078;2023-06-14T09:36:38;9.77;;;4.55;;
20657;SDS011;10488;50.846;4.078;2023-06-14T09:39:05;10.50;;;4.60;;
20657;SDS011;10488;50.846;4.078;2023-06-14T09:41:39;7.50;;;4.53;;
20657;SDS011;10488;50.846;4.078;2023-06-14T09:44:06;8.90;;;4.35;;
20657;SDS011;10488;50.846;4.078;2023-06-14T09:46:35;11.30;;;4.55;;
20657;SDS011;10488;50.846;4.078;2023-06-14T09:49:02;9.93;;;5.22;;
20657;SDS011;10488;50.846;4.078;2023-06-14T09:51:29;5.95;;;4.65;;
20657;SDS011;10488;50.846;4.078;2023-06-14T09:53:58;5.75;;;4.70;;
20657;SDS011;10488;50.846;4.078;2023-06-14T09:56:40;8.93;;;5.05;;
20657;SDS011;10488;50.846;4.078;2023-06-14T09:59:09;7.00;;;4.75;;
20657;SDS011;10488;50.846;4.078;2023-06-14T10:01:35;7.53;;;5.40;;
20657;SDS011;10488;50.846;4.078;2023-06-14T10:04:06;8.68;;;4.88;;
20657;SDS011;10488;50.846;4.078;2023-06-14T10:06:36;8.85;;;5.60;;
20657;SDS011;10488;50.846;4.078;2023-06-14T10:09:05;7.57;;;5.10;;
20657;SDS011;10488;50.846;4.078;2023-06-14T10:11:35;12.00;;;5.55;;
20657;SDS011;10488;50.846;4.078;2023-06-14T10:14:01;14.55;;;4.90;;
20657;SDS011;10488;50.846;4.078;2023-06-14T10:22:17;7.97;;;5.53;;
20657;SDS011;10488;50.846;4.078;2023-06-14T10:24:48;6.22;;;4.75;;
20657;SDS011;10488;50.846;4.078;2023-06-14T10:27:15;9.15;;;4.68;;
20657;SDS011;10488;50.846;4.078;2023-06-14T10:30:04;10.82;;;5.00;;
20657;SDS011;10488;50.846;4.078;2023-06-14T10:32:31;13.05;;;5.88;;
20657;SDS011;10488;50.846;4.078;2023-06-14T10:35:00;11.30;;;5.70;;
20657;SDS011;10488;50.846;4.078;2023-06-14T10:37:30;10.10;;;5.10;;
20657;SDS011;10488;50.846;4.078;2023-06-14T10:39:56;8.88;;;4.82;;
20657;SDS011;10488;50.846;4.078;2023-06-14T10:42:23;8.50;;;4.55;;
20657;SDS011;10488;50.846;4.078;2023-06-14T10:44:58;36.60;;;7.15;;
20657;SDS011;10488;50.846;4.078;2023-06-14T10:49:51;7.80;;;5.22;;
20657;SDS011;10488;50.846;4.078;2023-06-14T10:52:20;13.63;;;5.88;;
20657;SDS011;10488;50.846;4.078;2023-06-14T10:57:41;7.22;;;5.10;;
20657;SDS011;10488;50.846;4.078;2023-06-14T11:00:16;8.40;;;4.72;;
20657;SDS011;10488;50.846;4.078;2023-06-14T11:05:25;7.63;;;5.43;;
20657;SDS011;10488;50.846;4.078;2023-06-14T11:10:39;6.88;;;5.30;;
20657;SDS011;10488;50.846;4.078;2023-06-14T11:13:07;6.65;;;4.65;;
20657;SDS011;10488;50.846;4.078;2023-06-14T11:15:34;8.63;;;4.80;;
20657;SDS011;10488;50.846;4.078;2023-06-14T11:18:06;6.88;;;4.47;;
20657;SDS011;10488;50.846;4.078;2023-06-14T11:20:34;11.95;;;5.82;;
20657;SDS011;10488;50.846;4.078;2023-06-14T11:23:01;10.20;;;4.45;;
20657;SDS011;10488;50.846;4.078;2023-06-14T11:25:28;7.57;;;4.95;;
20657;SDS011;10488;50.846;4.078;2023-06-14T11:27:54;9.52;;;5.10;;
20657;SDS011;10488;50.846;4.078;2023-06-14T11:30:20;11.63;;;4.80;;
20657;SDS011;10488;50.846;4.078;2023-06-14T11:32:46;7.45;;;4.38;;
20657;SDS011;10488;50.846;4.078;2023-06-14T11:35:13;8.43;;;4.80;;
20657;SDS011;10488;50.846;4.078;2023-06-14T11:37:38;5.28;;;4.15;;
20657;SDS011;10488;50.846;4.078;2023-06-14T11:40:06;11.60;;;5.38;;
20657;SDS011;10488;50.846;4.078;2023-06-14T11:42:33;7.10;;;4.28;;
20657;SDS011;10488;50.846;4.078;2023-06-14T11:44:59;10.93;;;5.75;;
20657;SDS011;10488;50.846;4.078;2023-06-14T11:47:33;7.40;;;4.80;;
20657;SDS011;10488;50.846;4.078;2023-06-14T11:50:03;9.38;;;4.53;;
20657;SDS011;10488;50.846;4.078;2023-06-14T11:52:30;7.63;;;4.90;;
20657;SDS011;10488;50.846;4.078;2023-06-14T11:54:56;8.90;;;4.30;;
20657;SDS011;10488;50.846;4.078;2023-06-14T11:57:23;11.90;;;4.72;;
20657;SDS011;10488;50.846;4.078;2023-06-14T11:59:49;8.50;;;4.80;;
20657;SDS011;10488;50.846;4.078;2023-06-14T12:02:18;4.50;;;3.88;;
20657;SDS011;10488;50.846;4.078;2023-06-14T12:04:46;8.15;;;4.35;;
20657;SDS011;10488;50.846;4.078;2023-06-14T12:07:15;4.88;;;4.28;;
20657;SDS011;10488;50.846;4.078;2023-06-14T12:12:22;8.95;;;5.18;;
20657;SDS011;10488;50.846;4.078;2023-06-14T12:14:51;11.07;;;5.07;;
20657;SDS011;10488;50.846;4.078;2023-06-14T12:17:17;10.13;;;4.43;;
20657;SDS011;10488;50.846;4.078;2023-06-14T12:19:44;7.72;;;4.55;;
20657;SDS011;10488;50.846;4.078;2023-06-14T12:22:11;6.80;;;4.43;;
20657;SDS011;10488;50.846;4.078;2023-06-14T12:24:38;10.07;;;4.22;;
20657;SDS011;10488;50.846;4.078;2023-06-14T12:27:07;9.85;;;4.68;;
20657;SDS011;10488;50.846;4.078;2023-06-14T12:29:33;6.07;;;4.18;;
20657;SDS011;10488;50.846;4.078;2023-06-14T12:31:59;9.13;;;4.15;;
20657;SDS011;10488;50.846;4.078;2023-06-14T12:34:25;7.10;;;4.40;;
20657;SDS011;10488;50.846;4.078;2023-06-14T12:36:53;10.60;;;4.63;;
20657;SDS011;10488;50.846;4.078;2023-06-14T12:39:20;7.15;;;4.15;;
20657;SDS011;10488;50.846;4.078;2023-06-14T12:41:46;7.63;;;4.13;;
20657;SDS011;10488;50.846;4.078;2023-06-14T12:44:12;10.55;;;4.70;;
20657;SDS011;10488;50.846;4.078;2023-06-14T12:46:39;9.57;;;4.53;;
20657;SDS011;10488;50.846;4.078;2023-06-14T12:49:07;10.02;;;4.18;;
20657;SDS011;10488;50.846;4.078;2023-06-14T12:51:34;6.40;;;4.00;;
20657;SDS011;10488;50.846;4.078;2023-06-14T12:53:59;7.65;;;4.95;;
20657;SDS011;10488;50.846;4.078;2023-06-14T12:56:25;5.35;;;3.88;;
20657;SDS011;10488;50.846;4.078;2023-06-14T12:58:51;6.40;;;3.88;;
20657;SDS011;10488;50.846;4.078;2023-06-14T13:01:17;7.80;;;3.97;;
20657;SDS011;10488;50.846;4.078;2023-06-14T13:03:43;12.40;;;4.60;;
20657;SDS011;10488;50.846;4.078;2023-06-14T13:06:09;10.30;;;4.03;;
20657;SDS011;10488;50.846;4.078;2023-06-14T13:08:35;9.10;;;4.68;;
20657;SDS011;10488;50.846;4.078;2023-06-14T13:11:00;7.45;;;4.45;;
20657;SDS011;10488;50.846;4.078;2023-06-14T13:13:26;6.97;;;4.53;;
20657;SDS011;10488;50.846;4.078;2023-06-14T13:15:52;8.88;;;4.40;;
20657;SDS011;10488;50.846;4.078;2023-06-14T13:18:17;9.20;;;4.30;;
20657;SDS011;10488;50.846;4.078;2023-06-14T13:20:43;7.43;;;4.03;;
20657;SDS011;10488;50.846;4.078;2023-06-14T13:23:10;11.48;;;4.18;;
20657;SDS011;10488;50.846;4.078;2023-06-14T13:25:36;9.45;;;4.15;;
20657;SDS011;10488;50.846;4.078;2023-06-14T13:28:03;10.10;;;4.07;;
20657;SDS011;10488;50.846;4.078;2023-06-14T13:30:29;6.93;;;3.80;;
20657;SDS011;10488;50.846;4.078;2023-06-14T13:32:55;8.27;;;4.43;;
20657;SDS011;10488;50.846;4.078;2023-06-14T13:35:22;10.27;;;3.58;;
20657;SDS011;10488;50.846;4.078;2023-06-14T13:37:48;9.05;;;3.55;;
20657;SDS011;10488;50.846;4.078;2023-06-14T13:40:14;6.63;;;3.67;;
20657;SDS011;10488;50.846;4.078;2023-06-14T13:42:39;5.50;;;3.65;;
20657;SDS011;10488;50.846;4.078;2023-06-14T13:45:05;14.70;;;4.68;;
20657;SDS011;10488;50.846;4.078;2023-06-14T13:47:32;7.18;;;3.92;;
20657;SDS011;10488;50.846;4.078;2023-06-14T13:49:58;15.45;;;4.05;;
20657;SDS011;10488;50.846;4.078;2023-06-14T13:52:24;15.02;;;4.10;;
20657;SDS011;10488;50.846;4.078;2023-06-14T13:54:50;7.20;;;3.30;;
20657;SDS011;10488;50.846;4.078;2023-06-14T13:57:16;9.90;;;3.67;;
20657;SDS011;10488;50.846;4.078;2023-06-14T13:59:42;6.65;;;3.80;;
20657;SDS011;10488;50.846;4.078;2023-06-14T14:02:11;9.10;;;3.97;;
20657;SDS011;10488;50.846;4.078;2023-06-14T14:04:38;8.73;;;3.25;;
20657;SDS011;10488;50.846;4.078;2023-06-14T14:07:04;10.00;;;3.70;;
20657;SDS011;10488;50.846;4.078;2023-06-14T14:09:31;6.10;;;3.95;;
20657;SDS011;10488;50.846;4.078;2023-06-14T14:11:58;5.97;;;3.35;;
20657;SDS011;10488;50.846;4.078;2023-06-14T14:14:23;8.13;;;2.70;;
20657;SDS011;10488;50.846;4.078;2023-06-14T14:16:49;4.00;;;2.92;;
20657;SDS011;10488;50.846;4.078;2023-06-14T14:19:20;8.85;;;3.17;;
20657;SDS011;10488;50.846;4.078;2023-06-14T14:21:46;4.68;;;3.00;;
20657;SDS011;10488;50.846;4.078;2023-06-14T14:24:12;5.50;;;3.00;;
20657;SDS011;10488;50.846;4.078;2023-06-14T14:26:38;8.20;;;3.15;;
20657;SDS011;10488;50.846;4.078;2023-06-14T14:29:04;8.98;;;2.80;;
20657;SDS011;10488;50.846;4.078;2023-06-14T14:31:30;6.13;;;3.25;;
20657;SDS011;10488;50.846;4.078;2023-06-14T14:33:55;5.40;;;3.05;;
20657;SDS011;10488;50.846;4.078;2023-06-14T14:36:21;6.70;;;2.75;;
20657;SDS011;10488;50.846;4.078;2023-06-14T14:38:47;5.60;;;2.95;;
20657;SDS011;10488;50.846;4.078;2023-06-14T14:41:13;4.97;;;3.17;;
20657;SDS011;10488;50.846;4.078;2023-06-14T14:43:38;8.05;;;2.95;;
20657;SDS011;10488;50.846;4.078;2023-06-14T14:46:04;7.00;;;3.22;;
20657;SDS011;10488;50.846;4.078;2023-06-14T14:48:30;7.50;;;3.33;;
20657;SDS011;10488;50.846;4.078;2023-06-14T14:50:56;6.15;;;2.92;;
20657;SDS011;10488;50.846;4.078;2023-06-14T14:53:22;5.13;;;3.00;;
20657;SDS011;10488;50.846;4.078;2023-06-14T14:55:48;4.95;;;2.75;;
20657;SDS011;10488;50.846;4.078;2023-06-14T14:58:14;6.03;;;2.78;;
20657;SDS011;10488;50.846;4.078;2023-06-14T15:00:43;4.88;;;2.20;;
20657;SDS011;10488;50.846;4.078;2023-06-14T15:03:10;7.10;;;2.40;;